<?xml version="1.0" encoding="UTF-8" standalone="no" ?>
<gpx xmlns="http://www.topografix.com/GPX/1/1" xmlns:xsi="http://www.w3.org/2001/XMLSchema-instance" xsi:schemaLocation="http://www.topografix.com/GPX/1/1 http://www.topografix.com/GPX/1/1/gpx.xsd" version="1.1" creator="VisuGPX - https://www.visugpx.com">
  <metadata>
    <name>Tour de France 2019</name>
    <desc><![CDATA[4272km en 2 mois en tandem avec notre petit chien dans le panier avant]]></desc>
  </metadata>
  <trk>
    <name><![CDATA[Tracé 20191001-100459]]></name>
    <trkseg>
      <trkpt lat="47.24918" lon="6.01638">
        <ele>317.54</ele>
        <time>2019-10-01T08:07:26Z</time>
      </trkpt>
      <trkpt lat="47.24879" lon="6.01629">
        <ele>314.093</ele>
        <time>2019-10-01T08:08:32Z</time>
      </trkpt>
      <trkpt lat="47.2461" lon="6.01726">
        <ele>311.653</ele>
        <time>2019-10-01T08:09:05Z</time>
      </trkpt>
      <trkpt lat="47.24584" lon="6.01834">
        <ele>293.425</ele>
        <time>2019-10-01T08:09:35Z</time>
      </trkpt>
      <trkpt lat="47.24621" lon="6.01897">
        <ele>283.487</ele>
        <time>2019-10-01T08:10:05Z</time>
      </trkpt>
      <trkpt lat="47.24517" lon="6.0206">
        <ele>272.719</ele>
        <time>2019-10-01T08:10:35Z</time>
      </trkpt>
      <trkpt lat="47.24428" lon="6.0217">
        <ele>266.958</ele>
        <time>2019-10-01T08:11:29Z</time>
      </trkpt>
      <trkpt lat="47.24309" lon="6.02141">
        <ele>267.847</ele>
        <time>2019-10-01T08:12:02Z</time>
      </trkpt>
      <trkpt lat="47.24198" lon="6.02076">
        <ele>274.407</ele>
        <time>2019-10-01T08:12:32Z</time>
      </trkpt>
      <trkpt lat="47.24071" lon="6.02026">
        <ele>276.915</ele>
        <time>2019-10-01T08:13:02Z</time>
      </trkpt>
      <trkpt lat="47.23966" lon="6.02062">
        <ele>259.353</ele>
        <time>2019-10-01T08:13:35Z</time>
      </trkpt>
      <trkpt lat="47.23913" lon="6.0215">
        <ele>253.982</ele>
        <time>2019-10-01T08:14:08Z</time>
      </trkpt>
      <trkpt lat="47.23865" lon="6.02235">
        <ele>262.064</ele>
        <time>2019-10-01T08:14:38Z</time>
      </trkpt>
      <trkpt lat="47.23815" lon="6.0235">
        <ele>263.763</ele>
        <time>2019-10-01T08:15:08Z</time>
      </trkpt>
      <trkpt lat="47.23753" lon="6.0245">
        <ele>277.39</ele>
        <time>2019-10-01T08:15:44Z</time>
      </trkpt>
      <trkpt lat="47.23669" lon="6.02524">
        <ele>282.366</ele>
        <time>2019-10-01T08:16:14Z</time>
      </trkpt>
      <trkpt lat="47.23616" lon="6.02632">
        <ele>287.672</ele>
        <time>2019-10-01T08:16:44Z</time>
      </trkpt>
      <trkpt lat="47.2357" lon="6.02768">
        <ele>271.75</ele>
        <time>2019-10-01T08:17:14Z</time>
      </trkpt>
      <trkpt lat="47.23494" lon="6.02847">
        <ele>257.534</ele>
        <time>2019-10-01T08:17:47Z</time>
      </trkpt>
      <trkpt lat="47.23415" lon="6.02738">
        <ele>264.871</ele>
        <time>2019-10-01T08:18:17Z</time>
      </trkpt>
      <trkpt lat="47.23367" lon="6.02671">
        <ele>269.583</ele>
        <time>2019-10-01T08:18:47Z</time>
      </trkpt>
      <trkpt lat="47.23263" lon="6.02561">
        <ele>279.769</ele>
        <time>2019-10-01T08:19:17Z</time>
      </trkpt>
      <trkpt lat="47.23209" lon="6.02469">
        <ele>264.831</ele>
        <time>2019-10-01T08:19:59Z</time>
      </trkpt>
      <trkpt lat="47.23108" lon="6.02497">
        <ele>251.657</ele>
        <time>2019-10-01T08:20:32Z</time>
      </trkpt>
      <trkpt lat="47.23087" lon="6.02702">
        <ele>245.626</ele>
        <time>2019-10-01T08:21:02Z</time>
      </trkpt>
      <trkpt lat="47.23039" lon="6.02864">
        <ele>247.909</ele>
        <time>2019-10-01T08:21:35Z</time>
      </trkpt>
      <trkpt lat="47.22989" lon="6.03015">
        <ele>243.105</ele>
        <time>2019-10-01T08:22:05Z</time>
      </trkpt>
      <trkpt lat="47.22962" lon="6.03037">
        <ele>246.454</ele>
        <time>2019-10-01T08:22:38Z</time>
      </trkpt>
      <trkpt lat="47.22879" lon="6.03089">
        <ele>242.911</ele>
        <time>2019-10-01T08:23:08Z</time>
      </trkpt>
      <trkpt lat="47.22778" lon="6.03208">
        <ele>242.323</ele>
        <time>2019-10-01T08:23:38Z</time>
      </trkpt>
      <trkpt lat="47.22664" lon="6.03254">
        <ele>257.14</ele>
        <time>2019-10-01T08:24:08Z</time>
      </trkpt>
      <trkpt lat="47.225" lon="6.03182">
        <ele>246.723</ele>
        <time>2019-10-01T08:24:41Z</time>
      </trkpt>
      <trkpt lat="47.22366" lon="6.03116">
        <ele>245.39</ele>
        <time>2019-10-01T08:25:11Z</time>
      </trkpt>
      <trkpt lat="47.22227" lon="6.03039">
        <ele>244.739</ele>
        <time>2019-10-01T08:25:41Z</time>
      </trkpt>
      <trkpt lat="47.22102" lon="6.02927">
        <ele>249.41</ele>
        <time>2019-10-01T08:26:11Z</time>
      </trkpt>
      <trkpt lat="47.22015" lon="6.02728">
        <ele>250.541</ele>
        <time>2019-10-01T08:26:44Z</time>
      </trkpt>
      <trkpt lat="47.2198" lon="6.025">
        <ele>245.353</ele>
        <time>2019-10-01T08:27:14Z</time>
      </trkpt>
      <trkpt lat="47.21926" lon="6.02301">
        <ele>240.471</ele>
        <time>2019-10-01T08:27:44Z</time>
      </trkpt>
      <trkpt lat="47.21829" lon="6.02089">
        <ele>239.637</ele>
        <time>2019-10-01T08:28:14Z</time>
      </trkpt>
      <trkpt lat="47.21741" lon="6.01881">
        <ele>245.983</ele>
        <time>2019-10-01T08:28:47Z</time>
      </trkpt>
      <trkpt lat="47.21706" lon="6.01643">
        <ele>244.518</ele>
        <time>2019-10-01T08:29:17Z</time>
      </trkpt>
      <trkpt lat="47.21688" lon="6.01407">
        <ele>243.891</ele>
        <time>2019-10-01T08:29:47Z</time>
      </trkpt>
      <trkpt lat="47.21669" lon="6.01181">
        <ele>243.5</ele>
        <time>2019-10-01T08:30:17Z</time>
      </trkpt>
      <trkpt lat="47.21652" lon="6.00931">
        <ele>248.842</ele>
        <time>2019-10-01T08:30:50Z</time>
      </trkpt>
      <trkpt lat="47.21643" lon="6.00719">
        <ele>254.424</ele>
        <time>2019-10-01T08:31:20Z</time>
      </trkpt>
      <trkpt lat="47.21613" lon="6.00484">
        <ele>241.79</ele>
        <time>2019-10-01T08:31:50Z</time>
      </trkpt>
      <trkpt lat="47.21539" lon="6.00295">
        <ele>236.74</ele>
        <time>2019-10-01T08:32:20Z</time>
      </trkpt>
      <trkpt lat="47.214" lon="6.00109">
        <ele>241.866</ele>
        <time>2019-10-01T08:32:53Z</time>
      </trkpt>
      <trkpt lat="47.21255" lon="5.99962">
        <ele>237.261</ele>
        <time>2019-10-01T08:33:23Z</time>
      </trkpt>
      <trkpt lat="47.21123" lon="5.99834">
        <ele>236.931</ele>
        <time>2019-10-01T08:33:53Z</time>
      </trkpt>
      <trkpt lat="47.20994" lon="5.99711">
        <ele>235.646</ele>
        <time>2019-10-01T08:34:23.001Z</time>
      </trkpt>
      <trkpt lat="47.20843" lon="5.99581">
        <ele>237.528</ele>
        <time>2019-10-01T08:34:56.001Z</time>
      </trkpt>
      <trkpt lat="47.20685" lon="5.99511">
        <ele>235.362</ele>
        <time>2019-10-01T08:35:26.001Z</time>
      </trkpt>
      <trkpt lat="47.20611" lon="5.99552">
        <ele>238.464</ele>
        <time>2019-10-01T08:35:56.001Z</time>
      </trkpt>
      <trkpt lat="47.20468" lon="5.99494">
        <ele>239.732</ele>
        <time>2019-10-01T08:36:26.001Z</time>
      </trkpt>
      <trkpt lat="47.20304" lon="5.99425">
        <ele>237.981</ele>
        <time>2019-10-01T08:36:59.001Z</time>
      </trkpt>
      <trkpt lat="47.20156" lon="5.99312">
        <ele>241.962</ele>
        <time>2019-10-01T08:37:29.001Z</time>
      </trkpt>
      <trkpt lat="47.20054" lon="5.99167">
        <ele>244.407</ele>
        <time>2019-10-01T08:37:59.001Z</time>
      </trkpt>
      <trkpt lat="47.19986" lon="5.98942">
        <ele>241.856</ele>
        <time>2019-10-01T08:38:29.001Z</time>
      </trkpt>
      <trkpt lat="47.1991" lon="5.98743">
        <ele>234.812</ele>
        <time>2019-10-01T08:38:59.001Z</time>
      </trkpt>
      <trkpt lat="47.19832" lon="5.98527">
        <ele>237.22</ele>
        <time>2019-10-01T08:39:32.001Z</time>
      </trkpt>
      <trkpt lat="47.1982" lon="5.98307">
        <ele>242.57</ele>
        <time>2019-10-01T08:40:02Z</time>
      </trkpt>
      <trkpt lat="47.1987" lon="5.98101">
        <ele>240.204</ele>
        <time>2019-10-01T08:40:32.001Z</time>
      </trkpt>
      <trkpt lat="47.19896" lon="5.97869">
        <ele>238.537</ele>
        <time>2019-10-01T08:41:02Z</time>
      </trkpt>
      <trkpt lat="47.19903" lon="5.97614">
        <ele>241.039</ele>
        <time>2019-10-01T08:41:35.001Z</time>
      </trkpt>
      <trkpt lat="47.19917" lon="5.97381">
        <ele>240.967</ele>
        <time>2019-10-01T08:42:05.001Z</time>
      </trkpt>
      <trkpt lat="47.19928" lon="5.97155">
        <ele>241.33</ele>
        <time>2019-10-01T08:42:35.001Z</time>
      </trkpt>
      <trkpt lat="47.19934" lon="5.96926">
        <ele>241.352</ele>
        <time>2019-10-01T08:43:05.001Z</time>
      </trkpt>
      <trkpt lat="47.199" lon="5.96683">
        <ele>235.881</ele>
        <time>2019-10-01T08:43:38.001Z</time>
      </trkpt>
      <trkpt lat="47.19905" lon="5.96475">
        <ele>240.739</ele>
        <time>2019-10-01T08:44:08.001Z</time>
      </trkpt>
      <trkpt lat="47.19905" lon="5.96256">
        <ele>243.554</ele>
        <time>2019-10-01T08:44:38.001Z</time>
      </trkpt>
      <trkpt lat="47.19868" lon="5.96054">
        <ele>241.491</ele>
        <time>2019-10-01T08:45:11.001Z</time>
      </trkpt>
      <trkpt lat="47.19733" lon="5.95938">
        <ele>234.766</ele>
        <time>2019-10-01T08:45:44.001Z</time>
      </trkpt>
      <trkpt lat="47.19589" lon="5.95931">
        <ele>234.12</ele>
        <time>2019-10-01T08:46:14.001Z</time>
      </trkpt>
      <trkpt lat="47.19445" lon="5.95934">
        <ele>233.853</ele>
        <time>2019-10-01T08:46:44.001Z</time>
      </trkpt>
      <trkpt lat="47.19328" lon="5.96055">
        <ele>236.132</ele>
        <time>2019-10-01T08:47:14.001Z</time>
      </trkpt>
      <trkpt lat="47.19221" lon="5.96228">
        <ele>236.372</ele>
        <time>2019-10-01T08:47:47.001Z</time>
      </trkpt>
      <trkpt lat="47.19116" lon="5.96379">
        <ele>239.112</ele>
        <time>2019-10-01T08:48:17.001Z</time>
      </trkpt>
      <trkpt lat="47.18968" lon="5.96434">
        <ele>241.123</ele>
        <time>2019-10-01T08:48:47.001Z</time>
      </trkpt>
      <trkpt lat="47.18811" lon="5.96396">
        <ele>232.487</ele>
        <time>2019-10-01T08:49:17.001Z</time>
      </trkpt>
      <trkpt lat="47.18663" lon="5.9628">
        <ele>237.548</ele>
        <time>2019-10-01T08:49:50.001Z</time>
      </trkpt>
      <trkpt lat="47.18551" lon="5.96103">
        <ele>242.85</ele>
        <time>2019-10-01T08:50:20.001Z</time>
      </trkpt>
      <trkpt lat="47.18448" lon="5.95924">
        <ele>240.763</ele>
        <time>2019-10-01T08:50:50.001Z</time>
      </trkpt>
      <trkpt lat="47.18341" lon="5.95745">
        <ele>240.963</ele>
        <time>2019-10-01T08:51:20.001Z</time>
      </trkpt>
      <trkpt lat="47.18242" lon="5.95525">
        <ele>241.526</ele>
        <time>2019-10-01T08:51:53.001Z</time>
      </trkpt>
      <trkpt lat="47.18191" lon="5.95321">
        <ele>236.419</ele>
        <time>2019-10-01T08:52:23.001Z</time>
      </trkpt>
      <trkpt lat="47.18144" lon="5.95122">
        <ele>238.078</ele>
        <time>2019-10-01T08:52:53.001Z</time>
      </trkpt>
      <trkpt lat="47.18092" lon="5.94905">
        <ele>240.319</ele>
        <time>2019-10-01T08:53:23.001Z</time>
      </trkpt>
      <trkpt lat="47.18006" lon="5.94643">
        <ele>236.688</ele>
        <time>2019-10-01T08:53:56.001Z</time>
      </trkpt>
      <trkpt lat="47.17886" lon="5.94483">
        <ele>233.646</ele>
        <time>2019-10-01T08:54:26.001Z</time>
      </trkpt>
      <trkpt lat="47.17732" lon="5.94344">
        <ele>232.055</ele>
        <time>2019-10-01T08:54:56.001Z</time>
      </trkpt>
      <trkpt lat="47.17579" lon="5.94234">
        <ele>227.869</ele>
        <time>2019-10-01T08:55:26.001Z</time>
      </trkpt>
      <trkpt lat="47.17458" lon="5.94041">
        <ele>226.446</ele>
        <time>2019-10-01T08:55:59.001Z</time>
      </trkpt>
      <trkpt lat="47.17394" lon="5.938">
        <ele>231.582</ele>
        <time>2019-10-01T08:56:29.001Z</time>
      </trkpt>
      <trkpt lat="47.17326" lon="5.93567">
        <ele>229.883</ele>
        <time>2019-10-01T08:56:59.001Z</time>
      </trkpt>
      <trkpt lat="47.17252" lon="5.93372">
        <ele>231.516</ele>
        <time>2019-10-01T08:57:29.001Z</time>
      </trkpt>
      <trkpt lat="47.17188" lon="5.93164">
        <ele>231.755</ele>
        <time>2019-10-01T08:58:02Z</time>
      </trkpt>
      <trkpt lat="47.17166" lon="5.9307">
        <ele>231.442</ele>
        <time>2019-10-01T09:00:32.001Z</time>
      </trkpt>
      <trkpt lat="47.1713" lon="5.92885">
        <ele>230.041</ele>
        <time>2019-10-01T09:01:02Z</time>
      </trkpt>
      <trkpt lat="47.17105" lon="5.92672">
        <ele>232.167</ele>
        <time>2019-10-01T09:01:32.001Z</time>
      </trkpt>
      <trkpt lat="47.17083" lon="5.92432">
        <ele>233.729</ele>
        <time>2019-10-01T09:02:02Z</time>
      </trkpt>
      <trkpt lat="47.17068" lon="5.92178">
        <ele>232.16</ele>
        <time>2019-10-01T09:02:35.001Z</time>
      </trkpt>
      <trkpt lat="47.17062" lon="5.91946">
        <ele>231.64</ele>
        <time>2019-10-01T09:03:05.001Z</time>
      </trkpt>
      <trkpt lat="47.17051" lon="5.91721">
        <ele>232.068</ele>
        <time>2019-10-01T09:03:35.001Z</time>
      </trkpt>
      <trkpt lat="47.16994" lon="5.9151">
        <ele>231.832</ele>
        <time>2019-10-01T09:04:05.001Z</time>
      </trkpt>
      <trkpt lat="47.16985" lon="5.91309">
        <ele>234.356</ele>
        <time>2019-10-01T09:04:38.001Z</time>
      </trkpt>
      <trkpt lat="47.17032" lon="5.91082">
        <ele>238.315</ele>
        <time>2019-10-01T09:05:08.001Z</time>
      </trkpt>
      <trkpt lat="47.17103" lon="5.90865">
        <ele>237.66</ele>
        <time>2019-10-01T09:05:38.001Z</time>
      </trkpt>
      <trkpt lat="47.17179" lon="5.90691">
        <ele>243.489</ele>
        <time>2019-10-01T09:06:08.001Z</time>
      </trkpt>
      <trkpt lat="47.1725" lon="5.90577">
        <ele>247.973</ele>
        <time>2019-10-01T09:06:41.001Z</time>
      </trkpt>
      <trkpt lat="47.17238" lon="5.90488">
        <ele>251.272</ele>
        <time>2019-10-01T09:07:11.001Z</time>
      </trkpt>
      <trkpt lat="47.17101" lon="5.90539">
        <ele>243.204</ele>
        <time>2019-10-01T09:07:41.001Z</time>
      </trkpt>
      <trkpt lat="47.17012" lon="5.90586">
        <ele>237.272</ele>
        <time>2019-10-01T09:08:11.001Z</time>
      </trkpt>
      <trkpt lat="47.16894" lon="5.90473">
        <ele>238.743</ele>
        <time>2019-10-01T09:08:44.001Z</time>
      </trkpt>
      <trkpt lat="47.16781" lon="5.90317">
        <ele>234.661</ele>
        <time>2019-10-01T09:09:14.001Z</time>
      </trkpt>
      <trkpt lat="47.16618" lon="5.9033">
        <ele>228.748</ele>
        <time>2019-10-01T09:09:44.001Z</time>
      </trkpt>
      <trkpt lat="47.16518" lon="5.90269">
        <ele>237.047</ele>
        <time>2019-10-01T09:10:14.001Z</time>
      </trkpt>
      <trkpt lat="47.16423" lon="5.90117">
        <ele>247.239</ele>
        <time>2019-10-01T09:10:47.001Z</time>
      </trkpt>
      <trkpt lat="47.16347" lon="5.89923">
        <ele>254.804</ele>
        <time>2019-10-01T09:11:17.001Z</time>
      </trkpt>
      <trkpt lat="47.16291" lon="5.89695">
        <ele>259.074</ele>
        <time>2019-10-01T09:11:47.001Z</time>
      </trkpt>
      <trkpt lat="47.16235" lon="5.89461">
        <ele>247.63</ele>
        <time>2019-10-01T09:12:17.001Z</time>
      </trkpt>
      <trkpt lat="47.1618" lon="5.89208">
        <ele>240.462</ele>
        <time>2019-10-01T09:12:50.001Z</time>
      </trkpt>
      <trkpt lat="47.16138" lon="5.89034">
        <ele>231.455</ele>
        <time>2019-10-01T09:13:20.001Z</time>
      </trkpt>
      <trkpt lat="47.16046" lon="5.88871">
        <ele>226.844</ele>
        <time>2019-10-01T09:13:50.001Z</time>
      </trkpt>
      <trkpt lat="47.15983" lon="5.88751">
        <ele>234.934</ele>
        <time>2019-10-01T09:14:20.001Z</time>
      </trkpt>
      <trkpt lat="47.16098" lon="5.88669">
        <ele>237.531</ele>
        <time>2019-10-01T09:14:53.001Z</time>
      </trkpt>
      <trkpt lat="47.16257" lon="5.88586">
        <ele>229.843</ele>
        <time>2019-10-01T09:15:23.001Z</time>
      </trkpt>
      <trkpt lat="47.16251" lon="5.88414">
        <ele>227.352</ele>
        <time>2019-10-01T09:15:53.001Z</time>
      </trkpt>
      <trkpt lat="47.16129" lon="5.88287">
        <ele>228.449</ele>
        <time>2019-10-01T09:16:23.001Z</time>
      </trkpt>
      <trkpt lat="47.15967" lon="5.88234">
        <ele>228.164</ele>
        <time>2019-10-01T09:16:56.001Z</time>
      </trkpt>
      <trkpt lat="47.15821" lon="5.88269">
        <ele>231.426</ele>
        <time>2019-10-01T09:17:26.001Z</time>
      </trkpt>
      <trkpt lat="47.15665" lon="5.8834">
        <ele>227.359</ele>
        <time>2019-10-01T09:17:56.001Z</time>
      </trkpt>
      <trkpt lat="47.15524" lon="5.8835">
        <ele>226.988</ele>
        <time>2019-10-01T09:18:26.001Z</time>
      </trkpt>
      <trkpt lat="47.15359" lon="5.88346">
        <ele>229.333</ele>
        <time>2019-10-01T09:18:59.001Z</time>
      </trkpt>
      <trkpt lat="47.15209" lon="5.88337">
        <ele>230.327</ele>
        <time>2019-10-01T09:19:29.001Z</time>
      </trkpt>
      <trkpt lat="47.15051" lon="5.8833">
        <ele>229.656</ele>
        <time>2019-10-01T09:19:59.001Z</time>
      </trkpt>
      <trkpt lat="47.14888" lon="5.88323">
        <ele>233.978</ele>
        <time>2019-10-01T09:20:29.001Z</time>
      </trkpt>
      <trkpt lat="47.14736" lon="5.88252">
        <ele>231.835</ele>
        <time>2019-10-01T09:20:59.001Z</time>
      </trkpt>
      <trkpt lat="47.14583" lon="5.88107">
        <ele>229.631</ele>
        <time>2019-10-01T09:21:32.001Z</time>
      </trkpt>
      <trkpt lat="47.14457" lon="5.87951">
        <ele>228.777</ele>
        <time>2019-10-01T09:22:02Z</time>
      </trkpt>
      <trkpt lat="47.14373" lon="5.8775">
        <ele>228.868</ele>
        <time>2019-10-01T09:22:32.001Z</time>
      </trkpt>
      <trkpt lat="47.14291" lon="5.87549">
        <ele>227.554</ele>
        <time>2019-10-01T09:23:02Z</time>
      </trkpt>
      <trkpt lat="47.14198" lon="5.87338">
        <ele>227.243</ele>
        <time>2019-10-01T09:23:35.001Z</time>
      </trkpt>
      <trkpt lat="47.14131" lon="5.87146">
        <ele>226.471</ele>
        <time>2019-10-01T09:24:05.001Z</time>
      </trkpt>
      <trkpt lat="47.14075" lon="5.87001">
        <ele>227.384</ele>
        <time>2019-10-01T09:24:35.001Z</time>
      </trkpt>
      <trkpt lat="47.14008" lon="5.86788">
        <ele>229.01</ele>
        <time>2019-10-01T09:25:05.001Z</time>
      </trkpt>
      <trkpt lat="47.13947" lon="5.86534">
        <ele>227.129</ele>
        <time>2019-10-01T09:25:38.001Z</time>
      </trkpt>
      <trkpt lat="47.13896" lon="5.86312">
        <ele>223.735</ele>
        <time>2019-10-01T09:26:08.001Z</time>
      </trkpt>
      <trkpt lat="47.13909" lon="5.86083">
        <ele>226.752</ele>
        <time>2019-10-01T09:26:38.001Z</time>
      </trkpt>
      <trkpt lat="47.13927" lon="5.85854">
        <ele>230.817</ele>
        <time>2019-10-01T09:27:08.001Z</time>
      </trkpt>
      <trkpt lat="47.13955" lon="5.8558">
        <ele>225.946</ele>
        <time>2019-10-01T09:27:41.001Z</time>
      </trkpt>
      <trkpt lat="47.13976" lon="5.85339">
        <ele>224.301</ele>
        <time>2019-10-01T09:28:11.001Z</time>
      </trkpt>
      <trkpt lat="47.13989" lon="5.85162">
        <ele>229.337</ele>
        <time>2019-10-01T09:28:41.001Z</time>
      </trkpt>
      <trkpt lat="47.14117" lon="5.85044">
        <ele>228.426</ele>
        <time>2019-10-01T09:29:11.001Z</time>
      </trkpt>
      <trkpt lat="47.14295" lon="5.85098">
        <ele>222.453</ele>
        <time>2019-10-01T09:29:44.001Z</time>
      </trkpt>
      <trkpt lat="47.14453" lon="5.85175">
        <ele>221.911</ele>
        <time>2019-10-01T09:30:14.001Z</time>
      </trkpt>
      <trkpt lat="47.14615" lon="5.85249">
        <ele>220.91</ele>
        <time>2019-10-01T09:30:44.001Z</time>
      </trkpt>
      <trkpt lat="47.14774" lon="5.85327">
        <ele>221.421</ele>
        <time>2019-10-01T09:31:14.001Z</time>
      </trkpt>
      <trkpt lat="47.14942" lon="5.85408">
        <ele>225.794</ele>
        <time>2019-10-01T09:31:47.001Z</time>
      </trkpt>
      <trkpt lat="47.15104" lon="5.8549">
        <ele>229.962</ele>
        <time>2019-10-01T09:32:17.001Z</time>
      </trkpt>
      <trkpt lat="47.1527" lon="5.85567">
        <ele>231.194</ele>
        <time>2019-10-01T09:32:47.001Z</time>
      </trkpt>
      <trkpt lat="47.15442" lon="5.85615">
        <ele>228.118</ele>
        <time>2019-10-01T09:33:17.002Z</time>
      </trkpt>
      <trkpt lat="47.15579" lon="5.85643">
        <ele>226.053</ele>
        <time>2019-10-01T09:33:50.001Z</time>
      </trkpt>
      <trkpt lat="47.15735" lon="5.8563">
        <ele>223.049</ele>
        <time>2019-10-01T09:34:20.001Z</time>
      </trkpt>
      <trkpt lat="47.15892" lon="5.85529">
        <ele>221.778</ele>
        <time>2019-10-01T09:34:50.001Z</time>
      </trkpt>
      <trkpt lat="47.16038" lon="5.8541">
        <ele>221.392</ele>
        <time>2019-10-01T09:35:20.001Z</time>
      </trkpt>
      <trkpt lat="47.16198" lon="5.85282">
        <ele>221.796</ele>
        <time>2019-10-01T09:35:53.001Z</time>
      </trkpt>
      <trkpt lat="47.16337" lon="5.85155">
        <ele>220.985</ele>
        <time>2019-10-01T09:36:23.001Z</time>
      </trkpt>
      <trkpt lat="47.16453" lon="5.84988">
        <ele>223.749</ele>
        <time>2019-10-01T09:36:53.001Z</time>
      </trkpt>
      <trkpt lat="47.16544" lon="5.84784">
        <ele>225.406</ele>
        <time>2019-10-01T09:37:23.001Z</time>
      </trkpt>
      <trkpt lat="47.166" lon="5.84536">
        <ele>225.809</ele>
        <time>2019-10-01T09:37:56.001Z</time>
      </trkpt>
      <trkpt lat="47.16646" lon="5.84294">
        <ele>221.431</ele>
        <time>2019-10-01T09:38:26.001Z</time>
      </trkpt>
      <trkpt lat="47.16689" lon="5.84064">
        <ele>225.258</ele>
        <time>2019-10-01T09:38:56.001Z</time>
      </trkpt>
      <trkpt lat="47.16729" lon="5.83827">
        <ele>225.822</ele>
        <time>2019-10-01T09:39:26.001Z</time>
      </trkpt>
      <trkpt lat="47.16742" lon="5.83652">
        <ele>226.825</ele>
        <time>2019-10-01T09:50:53.001Z</time>
      </trkpt>
      <trkpt lat="47.16738" lon="5.83466">
        <ele>228.827</ele>
        <time>2019-10-01T09:51:23.001Z</time>
      </trkpt>
      <trkpt lat="47.16704" lon="5.83248">
        <ele>227.197</ele>
        <time>2019-10-01T09:51:53.001Z</time>
      </trkpt>
      <trkpt lat="47.16642" lon="5.83026">
        <ele>228.821</ele>
        <time>2019-10-01T09:52:23.001Z</time>
      </trkpt>
      <trkpt lat="47.16609" lon="5.82808">
        <ele>229.813</ele>
        <time>2019-10-01T09:52:53.001Z</time>
      </trkpt>
      <trkpt lat="47.16609" lon="5.8255">
        <ele>228.365</ele>
        <time>2019-10-01T09:53:26.001Z</time>
      </trkpt>
      <trkpt lat="47.16672" lon="5.82331">
        <ele>225.287</ele>
        <time>2019-10-01T09:53:56.001Z</time>
      </trkpt>
      <trkpt lat="47.16752" lon="5.82129">
        <ele>222.127</ele>
        <time>2019-10-01T09:54:26.001Z</time>
      </trkpt>
      <trkpt lat="47.16798" lon="5.81903">
        <ele>222.943</ele>
        <time>2019-10-01T09:54:56.001Z</time>
      </trkpt>
      <trkpt lat="47.16811" lon="5.81626">
        <ele>223.889</ele>
        <time>2019-10-01T09:55:29.001Z</time>
      </trkpt>
      <trkpt lat="47.16815" lon="5.81391">
        <ele>222.845</ele>
        <time>2019-10-01T09:55:59.001Z</time>
      </trkpt>
      <trkpt lat="47.16935" lon="5.81224">
        <ele>217.149</ele>
        <time>2019-10-01T09:56:29.001Z</time>
      </trkpt>
      <trkpt lat="47.17043" lon="5.81051">
        <ele>215.783</ele>
        <time>2019-10-01T09:56:59.001Z</time>
      </trkpt>
      <trkpt lat="47.17149" lon="5.80851">
        <ele>215.93</ele>
        <time>2019-10-01T09:57:32.001Z</time>
      </trkpt>
      <trkpt lat="47.17231" lon="5.80644">
        <ele>218.238</ele>
        <time>2019-10-01T09:58:02Z</time>
      </trkpt>
      <trkpt lat="47.17286" lon="5.80426">
        <ele>219.818</ele>
        <time>2019-10-01T09:58:32.001Z</time>
      </trkpt>
      <trkpt lat="47.17309" lon="5.80197">
        <ele>222.015</ele>
        <time>2019-10-01T09:59:02Z</time>
      </trkpt>
      <trkpt lat="47.17339" lon="5.79936">
        <ele>220.264</ele>
        <time>2019-10-01T09:59:35.001Z</time>
      </trkpt>
      <trkpt lat="47.1738" lon="5.79704">
        <ele>219.215</ele>
        <time>2019-10-01T10:00:05.001Z</time>
      </trkpt>
      <trkpt lat="47.1742" lon="5.79497">
        <ele>218.01</ele>
        <time>2019-10-01T10:00:35.001Z</time>
      </trkpt>
      <trkpt lat="47.17456" lon="5.79437">
        <ele>217.03</ele>
        <time>2019-10-01T10:14:59.001Z</time>
      </trkpt>
      <trkpt lat="47.17472" lon="5.79401">
        <ele>217.97</ele>
        <time>2019-10-01T10:33:14.002Z</time>
      </trkpt>
      <trkpt lat="47.17479" lon="5.7927">
        <ele>219.936</ele>
        <time>2019-10-01T10:33:44.001Z</time>
      </trkpt>
      <trkpt lat="47.17395" lon="5.79106">
        <ele>215.702</ele>
        <time>2019-10-01T10:34:14.001Z</time>
      </trkpt>
      <trkpt lat="47.17361" lon="5.78901">
        <ele>218.08</ele>
        <time>2019-10-01T10:34:44.001Z</time>
      </trkpt>
      <trkpt lat="47.17288" lon="5.78685">
        <ele>217.808</ele>
        <time>2019-10-01T10:35:17.001Z</time>
      </trkpt>
      <trkpt lat="47.17183" lon="5.78523">
        <ele>218.776</ele>
        <time>2019-10-01T10:35:47.001Z</time>
      </trkpt>
      <trkpt lat="47.17045" lon="5.78414">
        <ele>218.419</ele>
        <time>2019-10-01T10:36:17.001Z</time>
      </trkpt>
      <trkpt lat="47.16903" lon="5.78336">
        <ele>220.137</ele>
        <time>2019-10-01T10:36:47.001Z</time>
      </trkpt>
      <trkpt lat="47.16748" lon="5.78218">
        <ele>219.916</ele>
        <time>2019-10-01T10:37:20.001Z</time>
      </trkpt>
      <trkpt lat="47.1661" lon="5.78096">
        <ele>217.581</ele>
        <time>2019-10-01T10:37:50.001Z</time>
      </trkpt>
      <trkpt lat="47.16478" lon="5.77958">
        <ele>217.224</ele>
        <time>2019-10-01T10:38:20.001Z</time>
      </trkpt>
      <trkpt lat="47.16363" lon="5.77802">
        <ele>216.897</ele>
        <time>2019-10-01T10:38:50.001Z</time>
      </trkpt>
      <trkpt lat="47.1627" lon="5.77593">
        <ele>216.8</ele>
        <time>2019-10-01T10:39:23.001Z</time>
      </trkpt>
      <trkpt lat="47.16206" lon="5.77389">
        <ele>218.761</ele>
        <time>2019-10-01T10:39:53.001Z</time>
      </trkpt>
      <trkpt lat="47.16149" lon="5.77184">
        <ele>218.757</ele>
        <time>2019-10-01T10:40:23.001Z</time>
      </trkpt>
      <trkpt lat="47.161" lon="5.76969">
        <ele>220.423</ele>
        <time>2019-10-01T10:40:53.001Z</time>
      </trkpt>
      <trkpt lat="47.16" lon="5.76794">
        <ele>218.57</ele>
        <time>2019-10-01T10:41:26.001Z</time>
      </trkpt>
      <trkpt lat="47.15934" lon="5.76586">
        <ele>218.726</ele>
        <time>2019-10-01T10:41:56.001Z</time>
      </trkpt>
      <trkpt lat="47.15876" lon="5.76383">
        <ele>217.856</ele>
        <time>2019-10-01T10:42:26.001Z</time>
      </trkpt>
      <trkpt lat="47.15813" lon="5.76177">
        <ele>220.253</ele>
        <time>2019-10-01T10:42:56.001Z</time>
      </trkpt>
      <trkpt lat="47.15764" lon="5.76008">
        <ele>219.92</ele>
        <time>2019-10-01T10:43:26.001Z</time>
      </trkpt>
      <trkpt lat="47.15692" lon="5.75759">
        <ele>218.231</ele>
        <time>2019-10-01T10:43:59.001Z</time>
      </trkpt>
      <trkpt lat="47.1563" lon="5.75552">
        <ele>216.861</ele>
        <time>2019-10-01T10:44:29.001Z</time>
      </trkpt>
      <trkpt lat="47.15568" lon="5.7534">
        <ele>216.03</ele>
        <time>2019-10-01T10:44:59.001Z</time>
      </trkpt>
      <trkpt lat="47.15506" lon="5.75133">
        <ele>216.54</ele>
        <time>2019-10-01T10:45:29.001Z</time>
      </trkpt>
      <trkpt lat="47.15442" lon="5.7491">
        <ele>218.706</ele>
        <time>2019-10-01T10:46:02Z</time>
      </trkpt>
      <trkpt lat="47.15378" lon="5.74708">
        <ele>219.338</ele>
        <time>2019-10-01T10:46:32.001Z</time>
      </trkpt>
      <trkpt lat="47.15324" lon="5.74505">
        <ele>215.572</ele>
        <time>2019-10-01T10:47:02Z</time>
      </trkpt>
      <trkpt lat="47.15263" lon="5.74298">
        <ele>220.882</ele>
        <time>2019-10-01T10:47:32.001Z</time>
      </trkpt>
      <trkpt lat="47.15195" lon="5.74064">
        <ele>216.048</ele>
        <time>2019-10-01T10:48:05.001Z</time>
      </trkpt>
      <trkpt lat="47.15161" lon="5.7385">
        <ele>214.092</ele>
        <time>2019-10-01T10:48:35.001Z</time>
      </trkpt>
      <trkpt lat="47.15137" lon="5.73642">
        <ele>213.369</ele>
        <time>2019-10-01T10:49:05.001Z</time>
      </trkpt>
      <trkpt lat="47.15077" lon="5.73437">
        <ele>212.951</ele>
        <time>2019-10-01T10:49:35.001Z</time>
      </trkpt>
      <trkpt lat="47.15002" lon="5.73213">
        <ele>213.88</ele>
        <time>2019-10-01T10:50:08.001Z</time>
      </trkpt>
      <trkpt lat="47.14912" lon="5.7304">
        <ele>214.488</ele>
        <time>2019-10-01T10:50:38.001Z</time>
      </trkpt>
      <trkpt lat="47.14836" lon="5.72852">
        <ele>216.276</ele>
        <time>2019-10-01T10:51:08.001Z</time>
      </trkpt>
      <trkpt lat="47.14821" lon="5.72641">
        <ele>218.565</ele>
        <time>2019-10-01T10:51:38.001Z</time>
      </trkpt>
      <trkpt lat="47.14836" lon="5.72421">
        <ele>212.147</ele>
        <time>2019-10-01T10:52:11.001Z</time>
      </trkpt>
      <trkpt lat="47.14851" lon="5.72333">
        <ele>213.255</ele>
        <time>2019-10-01T10:53:23.001Z</time>
      </trkpt>
      <trkpt lat="47.14869" lon="5.72171">
        <ele>213.98</ele>
        <time>2019-10-01T10:53:53.001Z</time>
      </trkpt>
      <trkpt lat="47.14902" lon="5.71953">
        <ele>212.111</ele>
        <time>2019-10-01T10:54:23.001Z</time>
      </trkpt>
      <trkpt lat="47.14939" lon="5.717">
        <ele>214.203</ele>
        <time>2019-10-01T10:54:56.001Z</time>
      </trkpt>
      <trkpt lat="47.1497" lon="5.71466">
        <ele>214.101</ele>
        <time>2019-10-01T10:55:26.001Z</time>
      </trkpt>
      <trkpt lat="47.15053" lon="5.71274">
        <ele>212.457</ele>
        <time>2019-10-01T10:55:56.001Z</time>
      </trkpt>
      <trkpt lat="47.15089" lon="5.71042">
        <ele>209.082</ele>
        <time>2019-10-01T10:56:26.001Z</time>
      </trkpt>
      <trkpt lat="47.15096" lon="5.70795">
        <ele>209.678</ele>
        <time>2019-10-01T10:56:59.001Z</time>
      </trkpt>
      <trkpt lat="47.15069" lon="5.70584">
        <ele>212.993</ele>
        <time>2019-10-01T10:57:29.001Z</time>
      </trkpt>
      <trkpt lat="47.15053" lon="5.70364">
        <ele>215.925</ele>
        <time>2019-10-01T10:57:59.001Z</time>
      </trkpt>
      <trkpt lat="47.15073" lon="5.702">
        <ele>211.828</ele>
        <time>2019-10-01T10:58:29.001Z</time>
      </trkpt>
      <trkpt lat="47.15138" lon="5.6998">
        <ele>211.474</ele>
        <time>2019-10-01T10:59:02Z</time>
      </trkpt>
      <trkpt lat="47.15117" lon="5.69806">
        <ele>219.574</ele>
        <time>2019-10-01T10:59:32.001Z</time>
      </trkpt>
      <trkpt lat="47.15118" lon="5.69663">
        <ele>225.625</ele>
        <time>2019-10-01T11:00:02Z</time>
      </trkpt>
      <trkpt lat="47.1513" lon="5.69537">
        <ele>229.557</ele>
        <time>2019-10-01T11:00:32.001Z</time>
      </trkpt>
      <trkpt lat="47.15164" lon="5.69443">
        <ele>233.011</ele>
        <time>2019-10-01T11:01:05.001Z</time>
      </trkpt>
      <trkpt lat="47.15214" lon="5.69389">
        <ele>237.937</ele>
        <time>2019-10-01T11:01:35.001Z</time>
      </trkpt>
      <trkpt lat="47.15248" lon="5.69312">
        <ele>243.337</ele>
        <time>2019-10-01T11:02:05.001Z</time>
      </trkpt>
      <trkpt lat="47.15233" lon="5.69215">
        <ele>244.854</ele>
        <time>2019-10-01T11:02:35.001Z</time>
      </trkpt>
      <trkpt lat="47.15225" lon="5.69095">
        <ele>250.535</ele>
        <time>2019-10-01T11:03:08.001Z</time>
      </trkpt>
      <trkpt lat="47.15195" lon="5.68979">
        <ele>250.346</ele>
        <time>2019-10-01T11:03:38.001Z</time>
      </trkpt>
      <trkpt lat="47.15123" lon="5.68858">
        <ele>246.708</ele>
        <time>2019-10-01T11:04:08.001Z</time>
      </trkpt>
      <trkpt lat="47.15021" lon="5.68688">
        <ele>245.521</ele>
        <time>2019-10-01T11:04:38.001Z</time>
      </trkpt>
      <trkpt lat="47.14961" lon="5.68545">
        <ele>249.042</ele>
        <time>2019-10-01T11:05:08.001Z</time>
      </trkpt>
      <trkpt lat="47.14861" lon="5.68424">
        <ele>257.435</ele>
        <time>2019-10-01T11:05:41.001Z</time>
      </trkpt>
      <trkpt lat="47.14766" lon="5.68291">
        <ele>253.062</ele>
        <time>2019-10-01T11:06:11.001Z</time>
      </trkpt>
      <trkpt lat="47.14853" lon="5.68174">
        <ele>247.766</ele>
        <time>2019-10-01T11:06:41.001Z</time>
      </trkpt>
      <trkpt lat="47.14885" lon="5.68003">
        <ele>247.194</ele>
        <time>2019-10-01T11:07:11.001Z</time>
      </trkpt>
      <trkpt lat="47.14969" lon="5.67919">
        <ele>251.767</ele>
        <time>2019-10-01T11:07:44.001Z</time>
      </trkpt>
      <trkpt lat="47.14951" lon="5.67706">
        <ele>250.375</ele>
        <time>2019-10-01T11:08:14.001Z</time>
      </trkpt>
      <trkpt lat="47.14932" lon="5.67499">
        <ele>248.86</ele>
        <time>2019-10-01T11:08:44.001Z</time>
      </trkpt>
      <trkpt lat="47.14915" lon="5.67286">
        <ele>249.566</ele>
        <time>2019-10-01T11:09:14.001Z</time>
      </trkpt>
      <trkpt lat="47.14892" lon="5.67042">
        <ele>248.2</ele>
        <time>2019-10-01T11:09:47.001Z</time>
      </trkpt>
      <trkpt lat="47.14869" lon="5.66823">
        <ele>247.71</ele>
        <time>2019-10-01T11:10:17.001Z</time>
      </trkpt>
      <trkpt lat="47.14843" lon="5.66605">
        <ele>247.653</ele>
        <time>2019-10-01T11:10:47.001Z</time>
      </trkpt>
      <trkpt lat="47.1478" lon="5.66343">
        <ele>240.996</ele>
        <time>2019-10-01T11:11:17.001Z</time>
      </trkpt>
      <trkpt lat="47.14723" lon="5.66222">
        <ele>231.381</ele>
        <time>2019-10-01T11:11:50.001Z</time>
      </trkpt>
      <trkpt lat="47.14648" lon="5.66069">
        <ele>221.936</ele>
        <time>2019-10-01T11:12:20.001Z</time>
      </trkpt>
      <trkpt lat="47.14601" lon="5.65919">
        <ele>216.489</ele>
        <time>2019-10-01T11:12:50.001Z</time>
      </trkpt>
      <trkpt lat="47.14587" lon="5.65728">
        <ele>210.555</ele>
        <time>2019-10-01T11:13:20.001Z</time>
      </trkpt>
      <trkpt lat="47.14542" lon="5.65609">
        <ele>211.259</ele>
        <time>2019-10-01T11:13:53.001Z</time>
      </trkpt>
      <trkpt lat="47.144" lon="5.65584">
        <ele>210.873</ele>
        <time>2019-10-01T11:14:23.001Z</time>
      </trkpt>
      <trkpt lat="47.14246" lon="5.65562">
        <ele>207.299</ele>
        <time>2019-10-01T11:14:53.001Z</time>
      </trkpt>
      <trkpt lat="47.14114" lon="5.65529">
        <ele>208.476</ele>
        <time>2019-10-01T11:15:23.001Z</time>
      </trkpt>
      <trkpt lat="47.14006" lon="5.65385">
        <ele>210.371</ele>
        <time>2019-10-01T11:15:56.001Z</time>
      </trkpt>
      <trkpt lat="47.1391" lon="5.6526">
        <ele>207.912</ele>
        <time>2019-10-01T11:16:26.001Z</time>
      </trkpt>
      <trkpt lat="47.13814" lon="5.65139">
        <ele>207.89</ele>
        <time>2019-10-01T11:16:56.001Z</time>
      </trkpt>
      <trkpt lat="47.13692" lon="5.65076">
        <ele>206.076</ele>
        <time>2019-10-01T11:17:26.001Z</time>
      </trkpt>
      <trkpt lat="47.13542" lon="5.65022">
        <ele>209.366</ele>
        <time>2019-10-01T11:17:59.001Z</time>
      </trkpt>
      <trkpt lat="47.13403" lon="5.65026">
        <ele>209.946</ele>
        <time>2019-10-01T11:18:29.001Z</time>
      </trkpt>
      <trkpt lat="47.13322" lon="5.65067">
        <ele>215.441</ele>
        <time>2019-10-01T11:18:59.001Z</time>
      </trkpt>
      <trkpt lat="47.13267" lon="5.65067">
        <ele>220.509</ele>
        <time>2019-10-01T11:19:29.001Z</time>
      </trkpt>
      <trkpt lat="47.13221" lon="5.64973">
        <ele>225.038</ele>
        <time>2019-10-01T11:20:02Z</time>
      </trkpt>
      <trkpt lat="47.13206" lon="5.64646">
        <ele>215.98</ele>
        <time>2019-10-01T11:20:32.001Z</time>
      </trkpt>
      <trkpt lat="47.13319" lon="5.64411">
        <ele>210.921</ele>
        <time>2019-10-01T11:21:02Z</time>
      </trkpt>
      <trkpt lat="47.13438" lon="5.64255">
        <ele>212.307</ele>
        <time>2019-10-01T11:21:32.001Z</time>
      </trkpt>
      <trkpt lat="47.13533" lon="5.64045">
        <ele>221.434</ele>
        <time>2019-10-01T11:22:05.001Z</time>
      </trkpt>
      <trkpt lat="47.13559" lon="5.63832">
        <ele>225.205</ele>
        <time>2019-10-01T11:22:35.001Z</time>
      </trkpt>
      <trkpt lat="47.13529" lon="5.63621">
        <ele>228.386</ele>
        <time>2019-10-01T11:23:05.001Z</time>
      </trkpt>
      <trkpt lat="47.13579" lon="5.63399">
        <ele>230.57</ele>
        <time>2019-10-01T11:23:35.001Z</time>
      </trkpt>
      <trkpt lat="47.13614" lon="5.63176">
        <ele>221.969</ele>
        <time>2019-10-01T11:24:05.001Z</time>
      </trkpt>
      <trkpt lat="47.13638" lon="5.62904">
        <ele>216.173</ele>
        <time>2019-10-01T11:24:38.001Z</time>
      </trkpt>
      <trkpt lat="47.13629" lon="5.62676">
        <ele>215.719</ele>
        <time>2019-10-01T11:25:08.001Z</time>
      </trkpt>
      <trkpt lat="47.13618" lon="5.62457">
        <ele>221.979</ele>
        <time>2019-10-01T11:25:38.001Z</time>
      </trkpt>
      <trkpt lat="47.13598" lon="5.62232">
        <ele>227.047</ele>
        <time>2019-10-01T11:26:08.001Z</time>
      </trkpt>
      <trkpt lat="47.13547" lon="5.62012">
        <ele>217.479</ele>
        <time>2019-10-01T11:26:41.001Z</time>
      </trkpt>
      <trkpt lat="47.1346" lon="5.61817">
        <ele>206.149</ele>
        <time>2019-10-01T11:27:11.001Z</time>
      </trkpt>
      <trkpt lat="47.13396" lon="5.61633">
        <ele>207.802</ele>
        <time>2019-10-01T11:27:41.001Z</time>
      </trkpt>
      <trkpt lat="47.13336" lon="5.6143">
        <ele>208.031</ele>
        <time>2019-10-01T11:28:11.001Z</time>
      </trkpt>
      <trkpt lat="47.13249" lon="5.61224">
        <ele>210.291</ele>
        <time>2019-10-01T11:28:44.001Z</time>
      </trkpt>
      <trkpt lat="47.1316" lon="5.61034">
        <ele>210.726</ele>
        <time>2019-10-01T11:29:14.001Z</time>
      </trkpt>
      <trkpt lat="47.13078" lon="5.60863">
        <ele>214.781</ele>
        <time>2019-10-01T11:29:44.001Z</time>
      </trkpt>
      <trkpt lat="47.12999" lon="5.60688">
        <ele>218.725</ele>
        <time>2019-10-01T11:30:14.001Z</time>
      </trkpt>
      <trkpt lat="47.12898" lon="5.60468">
        <ele>215.812</ele>
        <time>2019-10-01T11:30:47.001Z</time>
      </trkpt>
      <trkpt lat="47.12786" lon="5.60323">
        <ele>214.039</ele>
        <time>2019-10-01T11:31:17.001Z</time>
      </trkpt>
      <trkpt lat="47.12706" lon="5.6021">
        <ele>214.29</ele>
        <time>2019-10-01T11:31:47.001Z</time>
      </trkpt>
      <trkpt lat="47.12687" lon="5.59986">
        <ele>215.037</ele>
        <time>2019-10-01T11:32:17.001Z</time>
      </trkpt>
      <trkpt lat="47.12723" lon="5.59766">
        <ele>208.189</ele>
        <time>2019-10-01T11:32:50.001Z</time>
      </trkpt>
      <trkpt lat="47.12725" lon="5.59567">
        <ele>207.644</ele>
        <time>2019-10-01T11:33:20.001Z</time>
      </trkpt>
      <trkpt lat="47.12723" lon="5.59366">
        <ele>208.406</ele>
        <time>2019-10-01T11:33:50.001Z</time>
      </trkpt>
      <trkpt lat="47.12721" lon="5.59176">
        <ele>205.23</ele>
        <time>2019-10-01T11:34:20.001Z</time>
      </trkpt>
      <trkpt lat="47.12664" lon="5.58997">
        <ele>208.182</ele>
        <time>2019-10-01T11:34:53.001Z</time>
      </trkpt>
      <trkpt lat="47.12578" lon="5.58844">
        <ele>209.134</ele>
        <time>2019-10-01T11:35:23.001Z</time>
      </trkpt>
      <trkpt lat="47.12553" lon="5.58659">
        <ele>208.671</ele>
        <time>2019-10-01T11:35:53.001Z</time>
      </trkpt>
      <trkpt lat="47.12569" lon="5.5849">
        <ele>207.312</ele>
        <time>2019-10-01T11:36:23.001Z</time>
      </trkpt>
      <trkpt lat="47.1259" lon="5.58312">
        <ele>209.33</ele>
        <time>2019-10-01T11:36:56.001Z</time>
      </trkpt>
      <trkpt lat="47.12571" lon="5.58167">
        <ele>210.219</ele>
        <time>2019-10-01T11:37:26.001Z</time>
      </trkpt>
      <trkpt lat="47.12541" lon="5.58032">
        <ele>212.269</ele>
        <time>2019-10-01T11:37:56.001Z</time>
      </trkpt>
      <trkpt lat="47.12517" lon="5.5788">
        <ele>212.508</ele>
        <time>2019-10-01T11:38:26.001Z</time>
      </trkpt>
      <trkpt lat="47.1248" lon="5.57687">
        <ele>212.521</ele>
        <time>2019-10-01T11:38:59.001Z</time>
      </trkpt>
      <trkpt lat="47.12439" lon="5.57499">
        <ele>209.635</ele>
        <time>2019-10-01T11:39:29.001Z</time>
      </trkpt>
      <trkpt lat="47.12398" lon="5.57306">
        <ele>205.433</ele>
        <time>2019-10-01T11:39:59.001Z</time>
      </trkpt>
      <trkpt lat="47.12357" lon="5.57116">
        <ele>205.72</ele>
        <time>2019-10-01T11:40:29.001Z</time>
      </trkpt>
      <trkpt lat="47.12311" lon="5.56915">
        <ele>206.865</ele>
        <time>2019-10-01T11:41:02Z</time>
      </trkpt>
      <trkpt lat="47.12306" lon="5.56718">
        <ele>207.012</ele>
        <time>2019-10-01T11:41:32.001Z</time>
      </trkpt>
      <trkpt lat="47.12325" lon="5.56566">
        <ele>209.84</ele>
        <time>2019-10-01T11:42:02Z</time>
      </trkpt>
      <trkpt lat="47.1241" lon="5.56442">
        <ele>210.978</ele>
        <time>2019-10-01T11:42:32.001Z</time>
      </trkpt>
      <trkpt lat="47.12418" lon="5.56292">
        <ele>208.169</ele>
        <time>2019-10-01T11:43:05.001Z</time>
      </trkpt>
      <trkpt lat="47.12298" lon="5.56157">
        <ele>205.802</ele>
        <time>2019-10-01T11:43:35.001Z</time>
      </trkpt>
      <trkpt lat="47.12244" lon="5.56085">
        <ele>205.395</ele>
        <time>2019-10-01T11:47:02Z</time>
      </trkpt>
      <trkpt lat="47.12154" lon="5.55951">
        <ele>207.649</ele>
        <time>2019-10-01T11:47:32.001Z</time>
      </trkpt>
      <trkpt lat="47.12058" lon="5.55818">
        <ele>208.212</ele>
        <time>2019-10-01T11:48:02Z</time>
      </trkpt>
      <trkpt lat="47.11954" lon="5.55674">
        <ele>206.229</ele>
        <time>2019-10-01T11:48:35.001Z</time>
      </trkpt>
      <trkpt lat="47.11857" lon="5.55538">
        <ele>204.748</ele>
        <time>2019-10-01T11:49:05.001Z</time>
      </trkpt>
      <trkpt lat="47.11768" lon="5.55412">
        <ele>206.717</ele>
        <time>2019-10-01T11:49:35.001Z</time>
      </trkpt>
      <trkpt lat="47.11672" lon="5.55275">
        <ele>205.118</ele>
        <time>2019-10-01T11:50:05.001Z</time>
      </trkpt>
      <trkpt lat="47.11567" lon="5.55133">
        <ele>206.12</ele>
        <time>2019-10-01T11:50:38.001Z</time>
      </trkpt>
      <trkpt lat="47.11482" lon="5.55014">
        <ele>204.173</ele>
        <time>2019-10-01T11:51:08.001Z</time>
      </trkpt>
      <trkpt lat="47.11451" lon="5.54964">
        <ele>204.859</ele>
        <time>2019-10-01T11:51:50.001Z</time>
      </trkpt>
      <trkpt lat="47.11391" lon="5.54882">
        <ele>205.586</ele>
        <time>2019-10-01T11:52:29.001Z</time>
      </trkpt>
      <trkpt lat="47.1125" lon="5.54782">
        <ele>207.601</ele>
        <time>2019-10-01T11:53:02Z</time>
      </trkpt>
      <trkpt lat="47.1111" lon="5.54727">
        <ele>205.531</ele>
        <time>2019-10-01T11:53:32.001Z</time>
      </trkpt>
      <trkpt lat="47.10975" lon="5.54673">
        <ele>205.564</ele>
        <time>2019-10-01T11:54:02Z</time>
      </trkpt>
      <trkpt lat="47.10836" lon="5.54616">
        <ele>202.228</ele>
        <time>2019-10-01T11:54:32.001Z</time>
      </trkpt>
      <trkpt lat="47.10683" lon="5.54554">
        <ele>205.3</ele>
        <time>2019-10-01T11:55:05.001Z</time>
      </trkpt>
      <trkpt lat="47.10541" lon="5.54502">
        <ele>209.234</ele>
        <time>2019-10-01T11:55:35.001Z</time>
      </trkpt>
      <trkpt lat="47.10397" lon="5.54441">
        <ele>208.711</ele>
        <time>2019-10-01T11:56:05.001Z</time>
      </trkpt>
      <trkpt lat="47.10255" lon="5.54385">
        <ele>209.701</ele>
        <time>2019-10-01T11:56:35.001Z</time>
      </trkpt>
      <trkpt lat="47.10093" lon="5.54318">
        <ele>208.259</ele>
        <time>2019-10-01T11:57:08.001Z</time>
      </trkpt>
      <trkpt lat="47.09953" lon="5.54208">
        <ele>204.598</ele>
        <time>2019-10-01T11:57:38.001Z</time>
      </trkpt>
      <trkpt lat="47.0985" lon="5.54041">
        <ele>204.768</ele>
        <time>2019-10-01T11:58:08.001Z</time>
      </trkpt>
      <trkpt lat="47.09782" lon="5.53847">
        <ele>203.745</ele>
        <time>2019-10-01T11:58:38.001Z</time>
      </trkpt>
      <trkpt lat="47.09738" lon="5.53633">
        <ele>207.106</ele>
        <time>2019-10-01T11:59:11.001Z</time>
      </trkpt>
      <trkpt lat="47.09695" lon="5.53416">
        <ele>206.04</ele>
        <time>2019-10-01T11:59:41.001Z</time>
      </trkpt>
      <trkpt lat="47.09651" lon="5.53201">
        <ele>204.014</ele>
        <time>2019-10-01T12:00:11.001Z</time>
      </trkpt>
      <trkpt lat="47.09612" lon="5.53001">
        <ele>205.293</ele>
        <time>2019-10-01T12:00:41.001Z</time>
      </trkpt>
      <trkpt lat="47.09564" lon="5.52773">
        <ele>206.576</ele>
        <time>2019-10-01T12:01:14.001Z</time>
      </trkpt>
      <trkpt lat="47.09536" lon="5.52686">
        <ele>207.31</ele>
        <time>2019-10-01T12:01:47.001Z</time>
      </trkpt>
      <trkpt lat="47.09483" lon="5.52487">
        <ele>204.923</ele>
        <time>2019-10-01T12:02:17.001Z</time>
      </trkpt>
      <trkpt lat="47.09444" lon="5.52294">
        <ele>204.772</ele>
        <time>2019-10-01T12:02:47.001Z</time>
      </trkpt>
      <trkpt lat="47.094" lon="5.52075">
        <ele>205.888</ele>
        <time>2019-10-01T12:03:20.001Z</time>
      </trkpt>
      <trkpt lat="47.09357" lon="5.51869">
        <ele>202.724</ele>
        <time>2019-10-01T12:03:50.001Z</time>
      </trkpt>
      <trkpt lat="47.09319" lon="5.51665">
        <ele>201.823</ele>
        <time>2019-10-01T12:04:20.001Z</time>
      </trkpt>
      <trkpt lat="47.09285" lon="5.51453">
        <ele>202.977</ele>
        <time>2019-10-01T12:04:50.001Z</time>
      </trkpt>
      <trkpt lat="47.0928" lon="5.51245">
        <ele>199.649</ele>
        <time>2019-10-01T12:05:23.001Z</time>
      </trkpt>
      <trkpt lat="47.0929" lon="5.51066">
        <ele>199.33</ele>
        <time>2019-10-01T12:05:53.001Z</time>
      </trkpt>
      <trkpt lat="47.09311" lon="5.5087">
        <ele>202.34</ele>
        <time>2019-10-01T12:06:23.001Z</time>
      </trkpt>
      <trkpt lat="47.09313" lon="5.50666">
        <ele>202.438</ele>
        <time>2019-10-01T12:06:53.001Z</time>
      </trkpt>
      <trkpt lat="47.09314" lon="5.50483">
        <ele>198.844</ele>
        <time>2019-10-01T12:07:23.001Z</time>
      </trkpt>
      <trkpt lat="47.09319" lon="5.50324">
        <ele>203.935</ele>
        <time>2019-10-01T12:07:56.001Z</time>
      </trkpt>
      <trkpt lat="47.09365" lon="5.50205">
        <ele>209.698</ele>
        <time>2019-10-01T12:08:26.001Z</time>
      </trkpt>
      <trkpt lat="47.09377" lon="5.49991">
        <ele>200.041</ele>
        <time>2019-10-01T12:08:56.001Z</time>
      </trkpt>
      <trkpt lat="47.09369" lon="5.49928">
        <ele>201.114</ele>
        <time>2019-10-01T12:14:08.001Z</time>
      </trkpt>
      <trkpt lat="47.09382" lon="5.49961">
        <ele>206.387</ele>
        <time>2019-10-01T12:14:44.001Z</time>
      </trkpt>
      <trkpt lat="47.09375" lon="5.49854">
        <ele>209.915</ele>
        <time>2019-10-01T12:15:14.001Z</time>
      </trkpt>
      <trkpt lat="47.09395" lon="5.49773">
        <ele>218.345</ele>
        <time>2019-10-01T12:15:47.001Z</time>
      </trkpt>
      <trkpt lat="47.09427" lon="5.49699">
        <ele>222.285</ele>
        <time>2019-10-01T12:16:20.001Z</time>
      </trkpt>
      <trkpt lat="47.09497" lon="5.49693">
        <ele>228.261</ele>
        <time>2019-10-01T12:16:53.001Z</time>
      </trkpt>
      <trkpt lat="47.09474" lon="5.49581">
        <ele>238.86</ele>
        <time>2019-10-01T12:17:23.001Z</time>
      </trkpt>
      <trkpt lat="47.09407" lon="5.49416">
        <ele>243.415</ele>
        <time>2019-10-01T12:17:53.001Z</time>
      </trkpt>
      <trkpt lat="47.09356" lon="5.49408">
        <ele>233.478</ele>
        <time>2019-10-01T12:18:29.001Z</time>
      </trkpt>
      <trkpt lat="47.09292" lon="5.49409">
        <ele>232.26</ele>
        <time>2019-10-01T12:19:05.001Z</time>
      </trkpt>
      <trkpt lat="47.09281" lon="5.49421">
        <ele>238.533</ele>
        <time>2019-10-01T12:22:38.001Z</time>
      </trkpt>
      <trkpt lat="47.09279" lon="5.49414">
        <ele>247.731</ele>
        <time>2019-10-01T12:24:29.001Z</time>
      </trkpt>
      <trkpt lat="47.09279" lon="5.49412">
        <ele>247.381</ele>
        <time>2019-10-01T12:26:20.001Z</time>
      </trkpt>
      <trkpt lat="47.09283" lon="5.49406">
        <ele>243.823</ele>
        <time>2019-10-01T12:39:02Z</time>
      </trkpt>
      <trkpt lat="47.0928" lon="5.49408">
        <ele>242.907</ele>
        <time>2019-10-01T12:43:47.001Z</time>
      </trkpt>
    </trkseg>
  </trk>
</gpx>